Time;durP1;ratioP1;P1;durP2;ratioP2;P2;SDS_P1;SDS_P2;PMS_P1;PMS_P2;Temp;Humidity;BMP_temperature;BMP_pressure;BME280_temperature;BME280_humidity;BME280_pressure;Samples;Min_cycle;Max_cycle;Signal;HPM_P1;HPM_P2
2021/08/11 00:01:09;;;;;;;14.45;10.07;;;18.60;99.90;;;19.04;75.51;101697.84;5076385;28;20041;-70
2021/08/11 00:03:37;;;;;;;13.25;10.50;;;18.50;99.90;;;19.02;76.17;101703.25;5076738;28;20044;-70
2021/08/11 00:06:06;;;;;;;15.77;10.85;;;18.60;99.90;;;18.93;76.47;101674.84;5076307;28;20074;-70
2021/08/11 00:08:34;;;;;;;13.77;9.70;;;18.60;99.90;;;19.16;76.60;101687.69;5076498;28;20044;-71
2021/08/11 00:11:04;;;;;;;15.02;10.23;;;18.70;99.90;;;19.16;76.40;101706.47;5058809;28;20048;-70
2021/08/11 00:13:33;;;;;;;15.45;10.23;;;18.70;99.90;;;18.61;76.31;101590.81;5077069;28;20436;-70
2021/08/11 00:16:02;;;;;;;15.50;10.18;;;18.70;99.90;;;19.24;76.27;101695.53;5076438;28;20037;-70
2021/08/11 00:18:31;;;;;;;12.50;9.85;;;18.80;99.90;;;19.24;76.27;101696.38;5076091;28;20048;-70
2021/08/11 00:20:59;;;;;;;14.27;9.88;;;18.80;99.90;;;19.25;76.46;101687.44;5075944;28;20048;-71
2021/08/11 00:23:28;;;;;;;13.80;9.65;;;18.80;99.90;;;19.24;76.64;101691.00;5076059;28;20106;-70
2021/08/11 00:25:58;;;;;;;14.07;9.93;;;18.80;99.90;;;19.24;76.54;101685.66;5058264;28;20053;-70
2021/08/11 00:28:28;;;;;;;11.97;10.37;;;18.80;99.90;;;19.27;76.57;101690.06;5075907;28;20047;-70
2021/08/11 00:30:56;;;;;;;14.75;10.18;;;18.80;99.90;;;19.08;76.47;101657.50;5076038;28;20452;-70
2021/08/11 00:33:26;;;;;;;12.95;10.02;;;18.80;99.90;;;19.21;76.67;101685.75;5074857;28;20047;-70
2021/08/11 00:35:55;;;;;;;13.60;10.50;;;18.70;99.90;;;19.19;76.72;101684.91;5058070;28;20059;-70
2021/08/11 00:38:23;;;;;;;15.48;10.35;;;18.70;99.90;;;19.16;76.77;101689.47;5075704;28;20075;-70
2021/08/11 00:40:59;;;;;;;14.18;10.55;;;18.70;99.90;;;19.01;77.09;101666.59;5057747;28;20060;-70
2021/08/11 00:43:30;;;;;;;15.75;11.65;;;18.70;99.90;;;19.16;77.14;101689.47;5074350;28;20052;-70
2021/08/11 00:45:59;;;;;;;17.60;11.20;;;18.70;99.90;;;19.14;77.46;101692.22;5075699;28;20386;-70
2021/08/11 00:48:29;;;;;;;15.65;11.35;;;18.70;99.90;;;19.04;77.83;101661.19;5074556;28;20045;-70
2021/08/11 00:50:58;;;;;;;12.55;9.82;;;18.80;99.90;;;19.11;77.95;101686.91;5075496;28;20040;-70
2021/08/11 00:53:30;;;;;;;16.92;11.82;;;18.80;99.90;;;18.85;77.95;101654.53;5057454;28;20048;-70
2021/08/11 00:56:01;;;;;;;15.85;11.50;;;18.60;99.90;;;19.01;78.30;101684.53;5057872;28;20048;-70
2021/08/11 00:58:36;;;;;;;15.05;10.90;;;18.60;99.90;;;18.95;78.56;101682.00;5057879;28;20045;-70
2021/08/11 01:01:06;;;;;;;14.90;11.02;;;18.60;99.90;;;18.89;78.97;101683.91;5057418;28;20123;-70
2021/08/11 01:03:37;;;;;;;18.40;11.63;;;18.50;99.90;;;18.86;79.24;101681.31;5057895;28;20387;-71
2021/08/11 01:06:09;;;;;;;15.90;12.23;;;18.50;99.90;;;18.83;79.64;101672.47;5057376;28;20055;-70
2021/08/11 01:08:42;;;;;;;15.13;10.55;;;18.50;99.90;;;18.64;80.12;101674.72;5057134;28;20048;-71
2021/08/11 01:11:12;;;;;;;14.90;12.02;;;18.40;99.90;;;18.63;81.12;101680.13;5073417;28;20531;-70
2021/08/11 01:13:44;;;;;;;;;;;18.30;99.90;;;18.55;81.67;101682.09;5057705;28;20049;-70
2021/08/11 01:16:15;;;;;;;19.30;13.75;;;18.20;99.90;;;18.44;82.18;101690.41;5057382;28;19921;-71
2021/08/11 01:18:44;;;;;;;15.77;12.77;;;18.10;99.90;;;18.44;82.39;101684.16;5074899;28;20401;-70
2021/08/11 01:21:19;;;;;;;19.55;14.07;;;18.10;99.90;;;18.26;83.23;101672.03;5057224;28;20052;-71
2021/08/11 01:24:01;;;;;;;22.77;15.77;;;18.00;99.90;;;18.28;84.21;101678.25;5057272;28;20508;-70
2021/08/11 01:27:30;;;;;;;23.08;16.02;;;18.00;99.90;;;18.22;84.79;101681.06;5074973;28;20052;-70
2021/08/11 01:30:12;;;;;;;28.73;20.33;;;17.90;99.90;;;18.17;85.06;101676.72;5038709;28;20041;-70
2021/08/11 01:33:03;;;;;;;29.95;19.60;;;17.90;99.90;;;18.21;85.63;101683.78;5056596;28;20045;-70
2021/08/11 01:35:39;;;;;;;26.20;18.00;;;17.90;99.90;;;18.21;85.98;101690.03;5056882;28;20055;-70
2021/08/11 01:38:15;;;;;;;;;;;17.90;99.90;;;18.23;85.95;101685.50;5057368;28;20048;-71
2021/08/11 01:40:52;;;;;;;24.75;17.38;;;17.90;99.90;;;18.28;85.73;101672.88;5056747;28;19920;-70
2021/08/11 01:43:26;;;;;;;22.88;16.15;;;17.90;99.90;;;18.39;85.19;101678.84;5056982;28;20049;-71
2021/08/11 01:45:58;;;;;;;27.60;16.70;;;18.00;99.90;;;18.50;84.68;101676.88;5073481;28;20136;-71
2021/08/11 01:48:29;;;;;;;25.45;17.10;;;18.10;99.90;;;18.53;84.22;101681.25;5074856;28;20170;-71
2021/08/11 01:51:06;;;;;;;21.40;15.25;;;18.10;99.90;;;18.57;84.00;101680.25;5074647;28;20047;-71
2021/08/11 01:53:35;;;;;;;23.85;16.38;;;18.20;99.90;;;18.62;83.59;101691.75;5073381;28;20049;-71
2021/08/11 01:56:10;;;;;;;23.02;15.00;;;18.20;99.90;;;18.63;83.23;101694.41;5056609;28;20469;-70
2021/08/11 01:58:46;;;;;;;21.48;15.80;;;18.30;99.90;;;18.65;83.20;101697.94;5056340;28;20037;-71
2021/08/11 02:01:16;;;;;;;21.08;14.68;;;18.30;99.90;;;18.63;82.87;101686.34;5056498;28;20627;-70
2021/08/11 02:03:48;;;;;;;19.48;13.50;;;18.30;99.90;;;18.68;82.41;101680.88;5073236;28;20109;-70
2021/08/11 02:06:18;;;;;;;19.92;13.98;;;18.40;99.90;;;18.81;81.80;101695.75;5056433;28;20044;-70
2021/08/11 02:08:54;;;;;;;18.85;13.52;;;18.40;99.90;;;18.78;81.37;101683.28;5056356;28;20410;-70
2021/08/11 02:11:24;;;;;;;17.15;12.65;;;18.40;99.90;;;18.28;81.05;101583.59;5056316;28;20045;-70
2021/08/11 02:13:53;;;;;;;16.60;10.88;;;18.50;99.90;;;18.98;80.43;101689.94;5072900;28;20453;-70
2021/08/11 02:16:22;;;;;;;17.48;12.40;;;18.60;99.90;;;19.02;80.50;101694.31;5056485;28;20135;-70
2021/08/11 02:18:51;;;;;;;18.63;13.52;;;18.60;99.90;;;19.00;80.70;101686.31;5056315;28;20048;-71
2021/08/11 02:21:23;;;;;;;19.20;13.65;;;18.50;99.90;;;18.98;80.61;101689.94;5073604;28;20498;-71
2021/08/11 02:23:52;;;;;;;16.40;11.25;;;18.50;99.90;;;18.95;80.59;101684.69;5056202;28;20068;-70
2021/08/11 02:26:32;;;;;;;17.00;11.63;;;18.50;99.90;;;18.87;80.53;101672.31;5056185;28;20053;-71
2021/08/11 02:29:08;;;;;;;16.67;11.90;;;18.50;99.90;;;19.00;80.31;101689.00;5056003;28;20379;-70
2021/08/11 02:31:48;;;;;;;17.55;12.15;;;18.60;99.90;;;18.37;80.40;101576.22;5073710;28;20095;-70
2021/08/11 02:34:31;;;;;;;18.05;10.88;;;18.60;99.90;;;18.88;80.56;101667.84;5056007;28;20494;-70
2021/08/11 02:37:12;;;;;;;19.90;11.50;;;18.60;99.90;;;19.03;80.25;101680.00;5073547;28;20037;-70
2021/08/11 02:39:48;;;;;;;20.90;11.40;;;18.60;99.90;;;19.04;79.91;101687.09;5072673;28;20045;-70
2021/08/11 02:42:28;;;;;;;18.58;11.30;;;18.60;99.90;;;19.06;79.91;101672.75;5055665;28;20552;-70
2021/08/11 02:45:01;;;;;;;15.88;11.50;;;18.60;99.90;;;18.20;79.51;101519.50;5072647;28;20497;-70
2021/08/11 02:47:36;;;;;;;16.77;11.73;;;18.70;99.90;;;18.96;79.25;101651.56;5055554;28;20135;-70
2021/08/11 02:50:06;;;;;;;26.08;11.43;;;18.70;99.90;;;19.08;79.18;101681.63;5072401;28;20049;-70
2021/08/11 02:52:39;;;;;;;11.95;10.10;;;18.60;99.90;;;18.88;79.13;101681.25;5072614;28;20086;-70
2021/08/11 02:55:11;;;;;;;13.23;10.77;;;18.60;99.90;;;18.90;79.23;101680.31;5073401;28;20037;-70
2021/08/11 02:57:40;;;;;;;17.15;11.63;;;18.50;99.90;;;18.84;79.47;101677.78;5073288;28;20044;-70
2021/08/11 03:00:11;;;;;;;15.75;11.25;;;18.50;99.90;;;18.76;79.66;101677.09;5055475;28;20101;-70
2021/08/11 03:02:39;;;;;;;14.40;10.75;;;18.40;99.90;;;18.78;80.26;101685.09;5055480;28;20140;-70
2021/08/11 03:05:11;;;;;;;19.92;12.35;;;18.40;99.90;;;18.80;80.16;101686.81;5055809;28;20102;-70
2021/08/11 03:07:44;;;;;;;18.35;13.23;;;18.40;99.90;;;18.83;80.30;101676.00;5072176;28;20109;-70
2021/08/11 03:10:12;;;;;;;;;;;18.40;99.90;;;18.69;80.14;101659.41;5055584;28;20056;-70
2021/08/11 03:12:46;;;;;;;18.23;12.50;;;18.40;99.90;;;18.82;80.01;101670.69;5055426;28;19927;-70
2021/08/11 03:15:17;;;;;;;18.05;12.85;;;18.40;99.90;;;18.87;79.86;101675.00;5055777;28;20044;-70
2021/08/11 03:17:48;;;;;;;14.75;11.98;;;18.40;99.90;;;18.85;79.71;101681.34;5055189;28;20041;-70
2021/08/11 03:20:17;;;;;;;15.82;11.77;;;18.40;99.90;;;18.79;79.51;101677.00;5055255;28;20048;-70
2021/08/11 03:22:48;;;;;;;16.00;12.38;;;18.40;99.90;;;18.79;79.42;101673.47;5071979;28;20072;-70
2021/08/11 03:25:17;;;;;;;;;;;18.40;99.90;;;18.84;79.29;101675.09;5072486;28;20040;-70
2021/08/11 03:27:46;;;;;;;17.02;13.00;;;18.40;99.90;;;18.88;79.19;101681.25;5071907;28;20382;-70
2021/08/11 03:30:17;;;;;;;17.88;13.02;;;18.40;99.90;;;18.90;79.16;101677.63;5055248;28;20053;-70
2021/08/11 03:32:46;;;;;;;19.60;13.38;;;18.40;99.90;;;18.86;79.01;101670.59;5074273;28;20044;-70
2021/08/11 03:35:15;;;;;;;21.35;14.15;;;18.40;99.90;;;18.92;79.02;101681.16;5059804;28;20049;-71
2021/08/11 03:37:44;;;;;;;20.02;13.55;;;18.50;99.90;;;19.02;78.68;101688.94;5059618;28;20095;-70
2021/08/11 03:40:15;;;;;;;18.87;13.67;;;18.60;99.90;;;19.03;78.50;101696.09;5058901;28;20052;-71
2021/08/11 03:42:45;;;;;;;19.90;13.45;;;18.60;99.90;;;18.99;78.25;101686.34;5058799;28;20053;-70
2021/08/11 03:45:15;;;;;;;17.35;13.90;;;18.60;99.90;;;19.12;77.98;101706.56;5059178;28;20063;-70
2021/08/11 03:47:44;;;;;;;19.55;13.52;;;18.60;99.90;;;19.11;77.98;101707.47;5059132;28;20070;-70
2021/08/11 03:50:13;;;;;;;17.98;13.15;;;18.60;99.90;;;19.12;77.76;101701.22;5075700;28;20044;-70
2021/08/11 03:52:45;;;;;;;18.88;14.20;;;18.70;99.90;;;19.14;77.63;101700.25;5076897;28;20048;-70
2021/08/11 03:55:18;;;;;;;16.33;13.20;;;18.70;99.90;;;19.15;77.63;101695.75;5059003;28;20131;-70
2021/08/11 03:57:47;;;;;;;20.67;14.35;;;18.70;99.90;;;19.17;77.62;101697.47;5058938;28;20477;-70
2021/08/11 04:00:16;;;;;;;22.02;14.05;;;18.70;99.90;;;19.17;77.74;101688.53;5058796;28;20375;-70
2021/08/11 04:02:45;;;;;;;19.45;13.40;;;18.70;99.90;;;19.18;77.69;101701.06;5077133;28;20044;-70
2021/08/11 04:05:14;;;;;;;18.10;13.95;;;18.70;99.90;;;19.15;77.53;101707.38;5076837;28;20051;-70
2021/08/11 04:07:42;;;;;;;17.52;13.35;;;18.70;99.90;;;19.17;77.35;101704.63;5076590;28;20055;-70
2021/08/11 04:10:12;;;;;;;19.98;14.13;;;18.70;99.90;;;19.09;77.00;101699.47;5076620;28;20063;-70
2021/08/11 04:12:42;;;;;;;21.50;13.75;;;18.70;99.90;;;19.08;77.04;101702.19;5076985;28;20056;-68
2021/08/11 04:15:12;;;;;;;17.75;13.25;;;18.60;99.90;;;19.08;76.85;101710.25;5076488;28;20056;-69
2021/08/11 04:17:41;;;;;;;15.65;11.98;;;18.70;99.90;;;18.98;76.77;101698.00;5076495;28;20052;-70
2021/08/11 04:20:11;;;;;;;19.45;13.07;;;18.60;99.90;;;18.55;76.51;101640.09;5076695;28;20417;-70
2021/08/11 04:22:39;;;;;;;16.65;13.55;;;18.50;99.90;;;18.95;76.23;101708.81;5076574;28;20055;-69
2021/08/11 04:25:09;;;;;;;19.25;14.43;;;18.60;99.90;;;18.87;76.34;101699.13;5076640;28;20048;-70
2021/08/11 04:27:37;;;;;;;20.48;14.05;;;18.50;99.90;;;18.95;76.23;101711.50;5076368;28;20063;-70
2021/08/11 04:30:09;;;;;;;18.58;13.00;;;18.50;99.90;;;18.93;76.49;101709.72;5076016;28;20040;-70
2021/08/11 04:32:38;;;;;;;19.70;14.00;;;18.50;99.90;;;18.90;76.69;101700.88;5075229;28;20044;-70
2021/08/11 04:35:08;;;;;;;20.88;15.00;;;18.50;99.90;;;18.94;76.69;101705.25;5075749;28;20102;-70
2021/08/11 04:37:36;;;;;;;17.42;14.20;;;18.50;99.90;;;18.91;76.64;101698.16;5076464;28;20041;-70
2021/08/11 04:40:06;;;;;;;19.73;14.15;;;18.50;99.90;;;18.98;76.48;101703.34;5075740;28;20044;-70
2021/08/11 04:42:35;;;;;;;22.30;15.00;;;18.50;99.90;;;18.97;76.55;101709.66;5075112;28;20060;-70
2021/08/11 04:45:06;;;;;;;20.50;14.10;;;18.50;99.90;;;18.88;76.90;101702.72;5074725;28;20131;-70
2021/08/11 04:47:35;;;;;;;18.92;12.98;;;18.40;99.90;;;18.85;77.39;101700.97;5074810;28;20531;-70
2021/08/11 04:50:03;;;;;;;19.02;14.38;;;18.30;99.90;;;18.82;77.85;101702.84;5074921;28;20159;-70
2021/08/11 04:52:32;;;;;;;20.13;15.20;;;18.30;99.90;;;17.86;77.84;101578.38;5074907;28;20053;-70
2021/08/11 04:55:02;;;;;;;21.77;15.15;;;18.30;99.90;;;18.86;77.91;101709.91;5074867;28;20048;-70
2021/08/11 04:57:31;;;;;;;20.40;15.63;;;18.40;99.90;;;18.85;78.09;101709.03;5075152;28;20070;-70
2021/08/11 04:59:59;;;;;;;22.85;15.00;;;18.40;99.90;;;18.77;78.16;101694.06;5074607;28;20045;-70
2021/08/11 05:02:29;;;;;;;22.20;15.52;;;18.40;99.90;;;18.92;78.08;101720.50;5074925;28;20119;-70
2021/08/11 05:04:58;;;;;;;19.38;13.13;;;18.50;99.90;;;19.01;77.73;101720.25;5074737;28;20090;-70
2021/08/11 05:07:29;;;;;;;19.08;14.60;;;18.60;99.90;;;19.09;77.46;101712.00;5074556;28;20048;-71
2021/08/11 05:09:57;;;;;;;23.33;15.27;;;18.60;99.90;;;19.15;77.05;101717.22;5074634;28;20044;-71
2021/08/11 05:12:26;;;;;;;22.48;14.40;;;18.70;99.90;;;19.27;76.88;101727.63;5074443;28;20084;-70
2021/08/11 05:14:56;;;;;;;22.08;14.35;;;18.80;99.90;;;19.32;76.83;101723.94;5074873;28;20049;-70
2021/08/11 05:17:25;;;;;;;18.10;14.35;;;18.80;99.90;;;19.36;76.74;101720.25;5074503;28;20049;-70
2021/08/11 05:19:55;;;;;;;22.88;15.48;;;18.90;99.90;;;19.42;76.46;101733.50;5074989;28;20044;-70
2021/08/11 05:22:25;;;;;;;18.83;15.15;;;19.00;99.90;;;18.79;76.35;101615.34;5074710;28;20162;-70
2021/08/11 05:24:54;;;;;;;22.77;15.65;;;19.00;99.90;;;19.47;76.49;101734.25;5074407;28;20049;-71
2021/08/11 05:27:23;;;;;;;18.77;16.08;;;19.00;99.90;;;19.52;76.48;101739.50;5074706;28;20064;-71
2021/08/11 05:29:51;;;;;;;18.48;15.18;;;19.00;99.90;;;19.51;76.46;101737.75;5074637;28;20529;-71
2021/08/11 05:32:19;;;;;;;20.00;15.13;;;19.10;99.90;;;18.58;76.35;101580.19;5074189;28;20406;-71
2021/08/11 05:34:48;;;;;;;21.80;15.63;;;19.10;99.90;;;19.53;76.47;101746.66;5074654;28;20078;-70
2021/08/11 05:37:18;;;;;;;24.40;17.38;;;19.10;99.90;;;19.45;76.21;101724.50;5074352;28;20486;-71
2021/08/11 05:39:46;;;;;;;22.73;16.73;;;19.10;99.90;;;19.59;76.43;101751.81;5074323;28;20389;-71
2021/08/11 05:42:15;;;;;;;26.13;17.05;;;19.10;99.90;;;19.51;76.78;101733.25;5034549;28;1119862;-71
2021/08/11 05:44:43;;;;;;;21.75;16.10;;;19.20;99.90;;;19.72;77.11;101761.31;5075473;28;20045;-70
2021/08/11 05:47:12;;;;;;;25.95;18.23;;;19.20;99.90;;;19.73;77.22;101755.91;5075094;28;20055;-70
2021/08/11 05:49:41;;;;;;;28.95;18.00;;;19.30;99.90;;;19.90;77.28;101767.97;5075145;28;20048;-71
2021/08/11 05:52:10;;;;;;;24.85;17.02;;;19.40;99.90;;;19.85;77.49;101743.94;5075318;28;20047;-71
2021/08/11 05:54:40;;;;;;;32.58;17.75;;;19.50;99.90;;;20.06;77.00;101772.84;5074839;28;20135;-71
2021/08/11 05:57:09;;;;;;;27.33;18.00;;;19.60;99.90;;;20.06;76.93;101775.53;5074585;28;20076;-71
2021/08/11 05:59:37;;;;;;;28.42;18.27;;;19.60;99.90;;;19.99;76.66;101773.09;5074965;28;20135;-71
2021/08/11 06:02:06;;;;;;;29.02;17.88;;;19.60;99.90;;;20.09;76.77;101763.84;5075169;28;20044;-71
2021/08/11 06:04:36;;;;;;;31.38;18.55;;;19.60;99.90;;;20.15;76.67;101772.59;5056496;28;20036;-71
2021/08/11 06:07:06;;;;;;;28.00;19.02;;;19.70;99.90;;;20.25;76.66;101771.41;5056501;28;20101;-71
2021/08/11 06:09:34;;;;;;;23.40;17.85;;;19.80;99.90;;;20.33;76.56;101774.75;5074509;28;20106;-71
2021/08/11 06:12:05;;;;;;;27.10;18.45;;;19.90;99.90;;;20.46;76.16;101780.66;5073876;28;20115;-71
2021/08/11 06:14:34;;;;;;;28.10;19.40;;;20.00;99.90;;;20.48;76.00;101782.34;5074315;28;20052;-71
2021/08/11 06:17:03;;;;;;;27.88;19.58;;;20.10;99.90;;;20.49;75.94;101785.94;5073993;28;20047;-71
2021/08/11 06:19:31;;;;;;;30.42;20.15;;;20.00;99.90;;;20.55;75.90;101788.44;5073883;28;20060;-71
2021/08/11 06:22:00;;;;;;;26.98;19.27;;;20.20;99.90;;;20.59;76.10;101792.78;5056360;28;20075;-71
2021/08/11 06:24:28;;;;;;;28.88;20.45;;;20.10;99.90;;;20.57;75.81;101797.34;5073581;28;20040;-71
2021/08/11 06:26:58;;;;;;;28.38;18.98;;;20.10;99.90;;;20.60;76.01;101795.44;5074035;28;20048;-71
2021/08/11 06:29:27;;;;;;;30.02;21.95;;;20.10;99.90;;;20.62;75.71;101798.97;5073764;28;20413;-71
2021/08/11 06:31:56;;;;;;;32.92;21.27;;;20.20;99.90;;;20.64;75.82;101797.09;5074425;28;20052;-71
2021/08/11 06:34:25;;;;;;;28.38;19.65;;;20.20;99.90;;;20.70;75.57;101787.97;5073641;28;20048;-71
2021/08/11 06:36:56;;;;;;;30.13;20.55;;;20.20;99.90;;;20.80;75.89;101793.94;5073905;28;20044;-71
2021/08/11 06:39:24;;;;;;;;;;;20.30;99.90;;;20.68;75.52;101776.38;5074348;28;20563;-71
2021/08/11 06:41:53;;;;;;;31.48;20.23;;;20.40;99.90;;;20.73;75.54;101798.59;5073473;28;19974;-71
2021/08/11 06:44:27;;;;;;;33.85;19.80;;;20.30;99.90;;;20.51;75.45;101724.94;5072522;28;20429;-71
2021/08/11 06:46:55;;;;;;;29.37;19.63;;;20.40;99.90;;;20.95;75.66;101799.69;5055344;28;20049;-71
2021/08/11 06:49:25;;;;;;;32.28;20.85;;;20.50;99.90;;;20.99;75.31;101793.28;5055431;28;20664;-71
2021/08/11 06:51:53;;;;;;;29.50;19.42;;;20.50;99.90;;;21.00;75.18;101795.03;5073554;28;20083;-71
2021/08/11 06:54:22;;;;;;;31.83;20.35;;;20.50;99.90;;;21.10;74.98;101801.06;5073525;28;20106;-71
2021/08/11 06:56:50;;;;;;;26.00;18.77;;;20.60;99.90;;;20.73;75.32;101735.91;5073476;28;20406;-71
2021/08/11 06:59:18;;;;;;;31.52;21.77;;;20.70;99.90;;;21.19;74.93;101806.13;5073436;28;20094;-71
2021/08/11 07:01:48;;;;;;;29.55;20.85;;;20.70;99.90;;;21.21;74.89;101793.50;5072255;28;20048;-71
2021/08/11 07:04:17;;;;;;;31.67;20.33;;;20.80;99.90;;;21.19;74.49;101798.06;5073454;28;20044;-71
2021/08/11 07:06:45;;;;;;;29.83;19.85;;;20.80;99.90;;;21.12;74.36;101796.47;5073265;28;20394;-71
2021/08/11 07:09:14;;;;;;;28.30;19.13;;;20.70;99.90;;;21.26;74.78;101819.31;5055190;28;20568;-71
2021/08/11 07:11:43;;;;;;;26.95;20.33;;;20.80;99.90;;;21.30;74.73;101807.53;5073464;28;20048;-70
2021/08/11 07:14:11;;;;;;;25.30;18.80;;;20.90;99.90;;;21.33;73.97;101796.66;5073008;28;20386;-70
2021/08/11 07:16:40;;;;;;;34.35;20.30;;;21.00;99.90;;;21.22;73.86;101776.41;5073147;28;20059;-72
2021/08/11 07:19:10;;;;;;;30.63;19.98;;;21.00;99.90;;;21.51;74.32;101800.53;5073506;28;20045;-71
2021/08/11 07:21:39;;;;;;;26.35;19.67;;;21.10;99.90;;;21.58;73.66;101811.03;5073495;28;20052;-71
2021/08/11 07:24:07;;;;;;;30.05;20.73;;;21.10;99.90;;;21.62;73.45;101801.06;5073248;28;20115;-71
2021/08/11 07:26:36;;;;;;;29.25;21.00;;;21.20;99.90;;;21.72;72.95;101799.78;5073018;28;20117;-70
2021/08/11 07:29:04;;;;;;;31.90;20.90;;;21.30;99.90;;;21.94;72.73;101808.88;5073321;28;20051;-71
2021/08/11 07:31:33;;;;;;;33.40;22.38;;;21.50;99.90;;;22.01;72.22;101807.72;5073245;28;20106;-71
2021/08/11 07:34:02;;;;;;;30.15;20.92;;;21.60;99.90;;;22.11;72.26;101808.25;5073073;28;20057;-71
2021/08/11 07:36:32;;;;;;;33.08;22.83;;;21.70;99.90;;;22.06;71.98;101808.44;5072919;28;20044;-71
2021/08/11 07:39:00;;;;;;;31.97;22.87;;;21.70;99.90;;;22.07;72.37;101807.50;5055014;28;20057;-70
2021/08/11 07:41:28;;;;;;;35.05;22.52;;;21.60;99.90;;;22.08;72.00;101808.38;5055040;28;20309;-70
2021/08/11 07:43:59;;;;;;;34.50;23.17;;;21.60;99.90;;;22.13;71.95;101809.09;5072902;28;20461;-71
2021/08/11 07:46:28;;;;;;;32.05;23.13;;;21.70;99.90;;;21.94;71.62;101786.44;5054996;28;20044;-72
2021/08/11 07:48:57;;;;;;;29.58;22.48;;;21.70;99.90;;;21.97;72.27;101787.22;5073056;28;20435;-71
2021/08/11 07:51:26;;;;;;;28.45;22.85;;;21.70;99.90;;;22.19;71.91;101822.34;5072773;28;20036;-71
2021/08/11 07:53:56;;;;;;;32.20;23.40;;;21.70;99.90;;;22.30;72.19;101823.69;5072885;28;20068;-71
2021/08/11 07:56:24;;;;;;;30.77;22.83;;;21.90;99.90;;;22.38;72.07;101820.72;5072967;28;20044;-70
2021/08/11 07:58:53;;;;;;;31.20;23.02;;;21.90;99.90;;;22.48;71.93;101815.84;5072695;28;20044;-72
2021/08/11 08:01:21;;;;;;;37.90;26.02;;;22.10;99.90;;;22.47;70.46;101819.50;5054735;28;20051;-71
2021/08/11 08:03:50;;;;;;;31.15;25.00;;;22.10;99.90;;;22.38;70.83;101828.78;5072963;28;20040;-70
2021/08/11 08:06:19;;;;;;;30.63;24.23;;;22.00;99.90;;;22.34;70.59;101827.16;5073020;28;20041;-70
2021/08/11 08:08:48;;;;;;;33.10;22.60;;;22.00;99.90;;;22.38;70.11;101832.38;5072735;28;20044;-71
2021/08/11 08:11:18;;;;;;;27.30;21.80;;;21.90;99.90;;;22.44;69.91;101833.97;5072760;28;20054;-70
2021/08/11 08:13:48;;;;;;;28.33;21.02;;;22.00;99.90;;;22.44;70.25;101826.75;5072637;28;20044;-63
2021/08/11 08:16:17;;;;;;;26.90;22.67;;;22.10;99.90;;;22.64;70.64;101825.16;5072977;28;20102;-68
2021/08/11 08:18:46;;;;;;;31.63;24.08;;;22.20;99.90;;;22.86;70.44;101829.63;5073912;28;20037;-69
2021/08/11 08:21:15;;;;;;;26.25;19.52;;;22.40;99.90;;;22.85;68.25;101822.47;5075203;28;20041;-69
2021/08/11 08:23:43;;;;;;;25.65;20.45;;;22.50;99.90;;;22.87;68.07;101833.22;5076457;28;20053;-69
2021/08/11 08:26:12;;;;;;;27.63;21.23;;;22.50;99.90;;;22.79;67.94;101844.31;5076326;28;20040;-69
2021/08/11 08:28:45;;;;;;;25.15;19.25;;;22.40;99.90;;;22.74;68.14;101845.44;5076516;28;20063;-69
2021/08/11 08:31:13;;;;;;;29.58;23.60;;;22.40;99.90;;;22.77;69.49;101824.59;5076280;28;20440;-70
2021/08/11 08:33:42;;;;;;;28.92;22.48;;;22.40;99.90;;;22.86;68.49;101845.81;5076292;28;20048;-68
2021/08/11 08:36:11;;;;;;;29.42;22.58;;;22.60;99.90;;;22.82;68.00;101816.34;5076333;28;20052;-69
2021/08/11 08:38:39;;;;;;;30.48;22.50;;;22.60;99.90;;;23.07;67.32;101825.22;5058130;28;20123;-69
2021/08/11 08:41:13;;;;;;;26.40;20.80;;;22.70;99.90;;;23.24;67.30;101814.59;5076253;28;20052;-69
2021/08/11 08:43:43;;;;;;;25.37;20.83;;;22.80;99.90;;;23.43;66.29;101822.81;5076188;28;20052;-69
2021/08/11 08:46:12;;;;;;;23.38;18.63;;;23.10;99.90;;;23.12;64.90;101739.50;5075719;28;20302;-69
2021/08/11 08:48:41;;;;;;;24.80;18.58;;;23.30;99.90;;;23.63;63.79;101815.63;5075755;28;20047;-69
2021/08/11 08:51:12;;;;;;;22.83;17.55;;;23.30;99.90;;;23.85;63.63;101824.56;5075695;28;20044;-69
2021/08/11 08:53:42;;;;;;;27.33;18.50;;;23.50;99.90;;;23.90;63.63;101817.13;5076146;28;20048;-69
2021/08/11 08:56:12;;;;;;;19.80;16.15;;;23.60;99.90;;;23.89;63.33;101804.56;5058096;28;20438;-69
2021/08/11 08:58:43;;;;;;;21.45;16.15;;;23.60;99.90;;;24.11;62.56;101832.44;5075662;28;20033;-69
2021/08/11 09:01:11;;;;;;;21.48;14.70;;;23.70;99.90;;;24.22;61.53;101845.44;5074389;28;20049;-74
2021/08/11 09:03:41;;;;;;;18.73;14.45;;;23.80;99.90;;;24.35;61.11;101843.09;5075205;28;20489;-69
2021/08/11 09:06:10;;;;;;;19.30;13.73;;;23.90;99.90;;;24.45;62.07;101847.97;5075672;28;20059;-75
2021/08/11 09:08:56;;;;;;;20.20;14.63;;;24.10;99.90;;;24.39;60.50;101842.00;5075343;28;20036;-69
2021/08/11 09:11:24;;;;;;;18.60;13.95;;;24.10;99.90;;;24.35;59.98;101843.09;5075283;28;20040;-69
2021/08/11 09:14:17;;;;;;;19.40;13.68;;;24.00;99.90;;;24.36;60.46;101844.81;5075007;28;20083;-69
2021/08/11 09:16:51;;;;;;;17.38;13.45;;;24.00;99.90;;;24.41;60.28;101851.78;5075684;28;20054;-70
2021/08/11 09:19:21;;;;;;;19.25;13.77;;;24.10;99.90;;;24.47;59.64;101828.97;5075659;28;20059;-69
2021/08/11 09:22:05;;;;;;;17.63;13.43;;;24.20;99.90;;;24.76;59.32;101844.75;5075047;28;20044;-69
2021/08/11 09:24:36;;;;;;;18.27;14.55;;;24.40;99.90;;;24.99;58.76;101855.34;5075149;28;20160;-69
2021/08/11 09:27:25;;;;;;;20.15;13.68;;;24.60;99.90;;;25.17;58.06;101843.63;5075272;28;20041;-69
2021/08/11 09:30:10;;;;;;;19.95;15.10;;;24.80;99.90;;;24.88;58.33;101839.63;5056490;28;20045;-69
2021/08/11 09:32:57;;;;;;;23.38;16.35;;;24.60;99.90;;;24.77;58.37;101843.81;5074789;28;20040;-69
2021/08/11 09:35:29;;;;;;;21.35;15.68;;;24.40;99.90;;;24.75;59.35;101846.59;5074724;28;20051;-69
2021/08/11 09:37:59;;;;;;;24.27;15.77;;;24.30;99.90;;;24.65;59.88;101834.41;5074953;28;20048;-69
2021/08/11 09:40:30;;;;;;;23.48;14.48;;;24.30;99.90;;;24.69;59.81;101836.03;5074535;28;20052;-69
2021/08/11 09:43:01;;;;;;;18.80;15.27;;;24.30;99.90;;;24.74;59.99;101835.81;5074863;28;20049;-69
2021/08/11 09:45:44;;;;;;;24.50;15.60;;;24.30;99.90;;;24.70;59.83;101843.19;5074786;28;20071;-69
2021/08/11 09:48:18;;;;;;;21.65;15.57;;;24.30;99.90;;;24.70;60.22;101842.31;5074476;28;20044;-69
2021/08/11 09:50:49;;;;;;;20.52;14.98;;;24.30;99.90;;;24.72;59.36;101849.44;5056793;28;20063;-69
2021/08/11 09:53:23;;;;;;;21.27;15.75;;;24.30;99.90;;;24.76;60.14;101847.44;5074640;28;20041;-69
2021/08/11 09:56:02;;;;;;;20.05;14.45;;;24.40;99.90;;;24.68;58.83;101839.66;5074531;28;20056;-69
2021/08/11 09:58:37;;;;;;;17.90;14.02;;;24.40;99.90;;;24.89;59.13;101863.03;5074637;28;20048;-69
2021/08/11 10:01:25;;;;;;;20.80;16.33;;;24.60;99.90;;;25.02;58.68;101852.50;5074467;28;20109;-68
2021/08/11 10:04:00;;;;;;;19.25;15.27;;;24.60;99.90;;;25.08;59.55;101857.63;5074515;28;20045;-69
2021/08/11 10:06:32;;;;;;;19.40;15.43;;;24.70;99.90;;;25.14;59.70;101861.88;5073886;28;20513;-69
2021/08/11 10:09:17;;;;;;;19.63;14.55;;;24.80;99.90;;;25.16;59.33;101870.78;5074247;28;20040;-68
2021/08/11 10:11:48;;;;;;;19.50;13.07;;;24.80;99.90;;;25.32;60.45;101869.94;5074207;28;20052;-69
2021/08/11 10:14:21;;;;;;;16.33;12.70;;;24.90;99.90;;;25.72;59.39;101869.75;5074014;28;20501;-69
2021/08/11 10:16:53;;;;;;;26.30;13.75;;;25.30;99.90;;;25.81;59.08;101868.38;5074556;28;20114;-69